Iota, Louisiana
Current Conditions -  °F | °C
As of 9:30 PM on Saturday 24 Jan 2015 (Local Time) from K3R7 Reporting Station
Clear Clear  
Wind Chill: 44°   Ceiling: Unl
Heat Index: 47°   Visibility: 10mi
Dew Point: 43°   Wind: 6mph
Humidity: 88%   Direction: 230°SW
Pressure: 30.09"   Gusts: NA
Location:  30.33°N, 92.5°W
Report Text: K3R7 250330Z AUTO 23005KT 10SM CLR 08/06 A3009 RMK AO2 T00810062
Loading
Personal Weather Stations






























Interactive Weather Map New forecast layout! Learn more

10-Day Weather Forecast

Advertisements
Track Severe Weather on mobile